createdAt,value
2023-05-19T00:01:15.242Z,12.10
2023-05-19T00:03:52.835Z,12.10
2023-05-19T00:06:27.290Z,12.10
2023-05-19T00:09:09.999Z,12.00
2023-05-19T00:11:37.984Z,12.00
2023-05-19T00:14:06.669Z,11.90
2023-05-19T00:16:33.789Z,11.90
2023-05-19T00:19:01.729Z,11.80
2023-05-19T00:21:29.228Z,11.80
2023-05-19T00:23:56.269Z,11.80
2023-05-19T00:26:23.689Z,11.70
2023-05-19T00:28:59.512Z,11.70
2023-05-19T00:31:26.557Z,11.70
2023-05-19T00:33:53.799Z,11.60
2023-05-19T00:36:20.970Z,11.60
2023-05-19T00:38:47.899Z,11.60
2023-05-19T00:41:14.946Z,11.60
2023-05-19T00:43:41.996Z,11.60
2023-05-19T00:46:09.103Z,11.60
2023-05-19T00:48:36.462Z,11.70
2023-05-19T00:51:04.860Z,11.70
2023-05-19T00:53:32.661Z,11.70
2023-05-19T00:56:00.602Z,11.80
2023-05-19T00:58:30.811Z,11.80
2023-05-19T01:01:03.676Z,11.70
2023-05-19T01:03:35.718Z,11.60
2023-05-19T01:06:07.257Z,11.60
2023-05-19T01:08:35.129Z,11.60
2023-05-19T01:11:02.170Z,11.60
2023-05-19T01:13:29.534Z,11.60
2023-05-19T01:16:06.971Z,11.60
2023-05-19T01:18:42.779Z,11.70
2023-05-19T01:21:44.941Z,11.70
2023-05-19T01:24:34.356Z,11.60
2023-05-19T01:27:19.618Z,11.70
2023-05-19T01:30:26.023Z,11.70
2023-05-19T01:32:56.617Z,11.70
2023-05-19T01:35:24.990Z,11.50
2023-05-19T01:37:53.083Z,11.40
2023-05-19T01:40:20.563Z,11.40
2023-05-19T01:42:47.563Z,11.30
2023-05-19T01:45:14.541Z,11.50
2023-05-19T01:47:42.971Z,11.60
2023-05-19T01:50:11.183Z,11.70
2023-05-19T01:52:38.249Z,11.80
2023-05-19T01:55:06.022Z,11.70
2023-05-19T01:57:54.798Z,11.70
2023-05-19T02:00:33.905Z,11.70
2023-05-19T02:03:01.115Z,11.70
2023-05-19T02:05:36.615Z,11.70
2023-05-19T02:08:19.444Z,11.60
2023-05-19T02:10:50.722Z,11.50
2023-05-19T02:13:18.472Z,11.30
2023-05-19T02:15:45.735Z,11.30
2023-05-19T02:18:12.766Z,11.30
2023-05-19T02:20:40.028Z,11.20
2023-05-19T02:23:07.227Z,11.10
2023-05-19T02:25:34.868Z,11.20
2023-05-19T02:28:01.936Z,11.20
2023-05-19T02:30:32.019Z,11.20
2023-05-19T02:33:00.705Z,11.10
2023-05-19T02:35:28.118Z,11.00
2023-05-19T02:37:55.190Z,11.00
2023-05-19T02:40:22.383Z,11.10
2023-05-19T02:42:50.223Z,11.20
2023-05-19T02:45:17.462Z,11.30
2023-05-19T02:47:44.481Z,11.40
2023-05-19T02:50:11.531Z,11.40
2023-05-19T02:52:38.583Z,11.30
2023-05-19T02:55:06.086Z,11.30
2023-05-19T02:57:34.723Z,11.40
2023-05-19T03:00:01.797Z,11.40
2023-05-19T03:02:28.860Z,11.40
2023-05-19T03:04:55.971Z,11.40
2023-05-19T03:07:25.366Z,11.40
2023-05-19T03:09:53.120Z,11.00
2023-05-19T03:12:20.147Z,11.20
2023-05-19T03:14:47.687Z,11.10
2023-05-19T03:17:14.903Z,11.10
2023-05-19T03:19:42.298Z,11.10
2023-05-19T03:22:09.264Z,11.10
2023-05-19T03:24:36.479Z,11.00
2023-05-19T03:27:05.475Z,10.80
2023-05-19T03:29:32.467Z,10.60
2023-05-19T03:31:59.997Z,10.80
2023-05-19T03:34:27.147Z,10.90
2023-05-19T03:36:54.715Z,10.90
2023-05-19T03:39:22.542Z,11.00
2023-05-19T03:41:49.917Z,11.00
2023-05-19T03:44:16.907Z,11.00
2023-05-19T03:46:44.608Z,10.90
2023-05-19T03:49:30.268Z,10.70
2023-05-19T03:52:26.488Z,10.60
2023-05-19T03:54:59.561Z,10.60
2023-05-19T03:57:27.037Z,10.70
2023-05-19T03:59:54.193Z,10.70
2023-05-19T04:02:21.840Z,10.70
2023-05-19T04:04:49.097Z,10.80
2023-05-19T04:07:16.168Z,10.80
2023-05-19T04:09:43.299Z,10.70
2023-05-19T04:12:10.578Z,10.60
2023-05-19T04:14:37.544Z,10.50
2023-05-19T04:17:04.714Z,10.50
2023-05-19T04:19:31.720Z,10.60
2023-05-19T04:21:58.762Z,10.80
2023-05-19T04:24:26.190Z,11.00
2023-05-19T04:26:53.669Z,10.90
2023-05-19T04:29:20.869Z,11.00
2023-05-19T04:31:49.083Z,11.00
2023-05-19T04:34:19.843Z,11.10
2023-05-19T04:36:48.598Z,11.10
2023-05-19T04:39:17.153Z,11.10
2023-05-19T04:41:45.872Z,11.10
2023-05-19T04:44:13.889Z,11.10
2023-05-19T04:46:42.808Z,11.10
2023-05-19T04:49:12.694Z,11.30
2023-05-19T04:51:41.572Z,11.30
2023-05-19T04:54:10.210Z,11.20
2023-05-19T04:56:37.395Z,11.30
2023-05-19T04:59:04.888Z,11.40
2023-05-19T05:01:33.958Z,11.50
2023-05-19T05:04:02.772Z,11.60
2023-05-19T05:06:31.745Z,11.70
2023-05-19T05:09:00.049Z,11.70
2023-05-19T05:11:27.391Z,11.80
2023-05-19T05:13:58.201Z,11.90
2023-05-19T05:16:30.121Z,12.00
2023-05-19T05:18:58.828Z,12.10
2023-05-19T05:21:26.353Z,12.10
2023-05-19T05:23:53.607Z,12.10
2023-05-19T05:26:23.344Z,12.20
2023-05-19T05:28:53.468Z,12.10
2023-05-19T05:31:21.207Z,12.10
2023-05-19T05:33:48.621Z,12.20
2023-05-19T05:36:18.681Z,12.30
2023-05-19T05:38:45.897Z,12.30
2023-05-19T05:41:12.830Z,12.40
2023-05-19T05:43:40.375Z,12.40
2023-05-19T05:46:07.623Z,12.40
2023-05-19T05:48:35.288Z,12.50
2023-05-19T05:51:02.592Z,12.60
2023-05-19T05:53:34.706Z,12.70
2023-05-19T05:56:02.273Z,12.70
2023-05-19T05:58:37.921Z,12.60
2023-05-19T06:01:05.690Z,12.70
2023-05-19T06:03:33.581Z,12.70
2023-05-19T06:06:05.740Z,12.80
2023-05-19T06:08:34.555Z,12.90
2023-05-19T06:11:01.554Z,13.10
2023-05-19T06:13:30.240Z,13.40
2023-05-19T06:15:57.774Z,13.50
2023-05-19T06:18:31.332Z,13.70
2023-05-19T06:20:58.604Z,13.90
2023-05-19T06:23:26.973Z,14.20
2023-05-19T06:25:54.169Z,14.50
2023-05-19T06:28:21.505Z,14.60
2023-05-19T06:30:50.824Z,14.90
2023-05-19T06:33:29.277Z,15.10
2023-05-19T06:35:56.986Z,15.20
2023-05-19T06:38:24.378Z,15.20
2023-05-19T06:40:51.476Z,15.20
2023-05-19T06:43:19.002Z,15.10
2023-05-19T06:45:56.945Z,15.00
2023-05-19T06:48:25.731Z,14.90
2023-05-19T06:50:52.830Z,14.80
2023-05-19T06:53:21.111Z,14.80
2023-05-19T06:55:58.736Z,14.70
2023-05-19T06:58:29.077Z,14.70
2023-05-19T07:00:56.756Z,14.60
2023-05-19T07:03:27.730Z,14.50
2023-05-19T07:05:55.228Z,14.30
2023-05-19T07:08:22.401Z,14.30
2023-05-19T07:10:49.457Z,14.20
2023-05-19T07:13:17.481Z,14.20
2023-05-19T07:15:45.454Z,14.20
2023-05-19T07:18:12.953Z,14.20
2023-05-19T07:20:40.088Z,14.20
2023-05-19T07:23:07.190Z,14.10
2023-05-19T07:25:34.233Z,13.90
2023-05-19T07:28:01.414Z,13.90
2023-05-19T07:30:28.894Z,14.00
2023-05-19T07:32:56.112Z,14.20
2023-05-19T07:35:23.162Z,14.30
2023-05-19T07:37:51.218Z,14.20
2023-05-19T07:40:18.326Z,14.30
2023-05-19T07:42:45.558Z,14.30
2023-05-19T07:45:12.634Z,14.30
2023-05-19T07:47:39.780Z,14.30
2023-05-19T07:50:07.503Z,14.30
2023-05-19T07:52:34.522Z,14.30
2023-05-19T07:55:01.441Z,14.30
2023-05-19T07:57:28.439Z,14.40
2023-05-19T07:59:55.754Z,14.50
2023-05-19T08:02:22.855Z,14.60
2023-05-19T08:04:49.980Z,14.70
2023-05-19T08:07:17.197Z,14.80
2023-05-19T08:09:44.342Z,14.90
2023-05-19T08:12:11.460Z,15.00
2023-05-19T08:14:38.679Z,15.10
2023-05-19T08:17:05.866Z,15.10
2023-05-19T08:19:32.842Z,15.30
2023-05-19T08:22:01.587Z,15.50
2023-05-19T08:24:32.954Z,15.60
2023-05-19T08:27:00.273Z,15.80
2023-05-19T08:29:27.449Z,15.90
2023-05-19T08:31:54.554Z,16.10
2023-05-19T08:34:22.346Z,16.20
2023-05-19T08:36:49.552Z,16.10
2023-05-19T08:39:18.657Z,16.00
2023-05-19T08:41:45.688Z,16.00
2023-05-19T08:44:12.615Z,15.90
2023-05-19T08:46:39.684Z,15.70
2023-05-19T08:49:13.317Z,15.60
2023-05-19T08:51:49.414Z,15.40
2023-05-19T08:54:18.024Z,15.40
2023-05-19T08:56:45.694Z,15.30
2023-05-19T08:59:14.102Z,15.30
2023-05-19T09:01:43.969Z,15.30
2023-05-19T09:04:11.124Z,15.20
2023-05-19T09:06:41.271Z,15.20
2023-05-19T09:09:08.812Z,15.10
2023-05-19T09:11:37.694Z,15.20
2023-05-19T09:14:05.769Z,15.10
2023-05-19T09:16:34.234Z,15.10
2023-05-19T09:19:01.565Z,15.10
2023-05-19T09:21:31.774Z,15.00
2023-05-19T09:24:03.997Z,15.20
2023-05-19T09:26:38.726Z,15.20
2023-05-19T09:29:32.295Z,15.30
2023-05-19T09:32:01.730Z,15.30
2023-05-19T09:34:28.903Z,15.30
2023-05-19T09:36:55.992Z,15.30
2023-05-19T09:39:23.611Z,15.30
2023-05-19T09:41:54.136Z,15.20
2023-05-19T09:44:23.970Z,15.30
2023-05-19T09:46:51.421Z,15.30
2023-05-19T09:49:26.251Z,15.40
2023-05-19T09:51:56.988Z,15.50
2023-05-19T09:54:24.597Z,15.50
2023-05-19T09:57:01.424Z,15.40
2023-05-19T09:59:32.336Z,15.40
2023-05-19T10:02:01.081Z,15.30
2023-05-19T10:04:29.868Z,15.30
2023-05-19T10:06:59.836Z,15.30
2023-05-19T10:09:30.864Z,15.10
2023-05-19T10:11:58.495Z,15.10
2023-05-19T10:14:26.473Z,15.20
2023-05-19T10:16:59.815Z,15.30
2023-05-19T10:19:28.138Z,15.30
2023-05-19T10:21:55.862Z,15.30
2023-05-19T10:24:23.184Z,15.40
2023-05-19T10:26:55.694Z,15.50
2023-05-19T10:29:27.460Z,15.60
2023-05-19T10:31:54.697Z,15.50
2023-05-19T10:34:37.633Z,15.50
2023-05-19T10:37:10.842Z,15.70
2023-05-19T10:39:37.998Z,15.70
2023-05-19T10:42:30.043Z,15.90
2023-05-19T10:45:07.020Z,16.10
2023-05-19T10:47:35.234Z,16.30
2023-05-19T10:50:02.419Z,16.40
2023-05-19T10:52:30.856Z,16.40
2023-05-19T10:54:58.525Z,16.40
2023-05-19T10:57:31.908Z,16.40
2023-05-19T11:00:09.992Z,16.40
2023-05-19T11:02:40.116Z,16.40
2023-05-19T11:05:15.013Z,16.30
2023-05-19T11:07:46.128Z,16.40
2023-05-19T11:10:13.443Z,16.80
2023-05-19T11:12:43.017Z,17.00
2023-05-19T11:15:14.468Z,17.30
2023-05-19T11:17:42.516Z,17.20
2023-05-19T11:20:13.061Z,17.10
2023-05-19T11:22:40.193Z,17.00
2023-05-19T11:25:09.137Z,17.20
2023-05-19T11:27:37.536Z,17.20
2023-05-19T11:30:16.090Z,17.10
2023-05-19T11:32:45.284Z,17.20
2023-05-19T11:35:12.689Z,17.20
2023-05-19T11:37:41.661Z,17.40
2023-05-19T11:40:09.364Z,17.50
2023-05-19T11:42:37.091Z,17.70
2023-05-19T11:45:05.009Z,17.80
2023-05-19T11:47:51.638Z,17.90
2023-05-19T11:50:20.978Z,17.90
2023-05-19T11:52:48.074Z,17.80
2023-05-19T11:55:19.056Z,17.70
2023-05-19T12:00:32.251Z,17.60
2023-05-19T12:02:59.717Z,17.80
2023-05-19T12:05:28.256Z,18.00
2023-05-19T12:07:55.607Z,18.20
2023-05-19T12:10:27.402Z,18.40
2023-05-19T12:12:54.748Z,18.50
2023-05-19T12:15:22.436Z,18.30
2023-05-19T12:17:59.941Z,18.50
2023-05-19T12:20:27.522Z,18.70
2023-05-19T12:22:57.174Z,18.30
2023-05-19T12:25:24.634Z,18.10
2023-05-19T12:27:56.161Z,17.90
2023-05-19T12:30:30.569Z,18.00
2023-05-19T12:32:58.244Z,17.80
2023-05-19T12:35:29.711Z,17.70
2023-05-19T12:37:56.738Z,17.60
2023-05-19T12:40:23.721Z,17.80
2023-05-19T12:42:53.589Z,17.90
2023-05-19T12:45:21.907Z,17.90
2023-05-19T12:47:49.270Z,17.90
2023-05-19T12:50:16.664Z,18.00
2023-05-19T12:52:47.436Z,18.20
2023-05-19T12:55:16.489Z,18.20
2023-05-19T12:57:45.492Z,18.30
2023-05-19T13:00:18.014Z,18.30
2023-05-19T13:03:06.641Z,18.40
2023-05-19T13:05:43.550Z,18.50
2023-05-19T13:08:11.987Z,18.60
2023-05-19T13:10:41.756Z,18.70
2023-05-19T13:13:08.929Z,18.60
2023-05-19T13:15:38.176Z,18.50
2023-05-19T13:18:06.581Z,18.40
2023-05-19T13:20:34.331Z,18.40
2023-05-19T13:23:01.828Z,18.60
2023-05-19T13:25:28.990Z,18.70
2023-05-19T13:27:56.822Z,18.80
2023-05-19T13:30:24.446Z,18.70
2023-05-19T13:32:52.719Z,18.60
2023-05-19T13:35:19.998Z,18.60
2023-05-19T13:37:47.087Z,18.60
2023-05-19T13:40:14.401Z,18.70
2023-05-19T13:42:41.814Z,18.60
2023-05-19T13:45:09.544Z,18.50
2023-05-19T13:47:36.600Z,18.40
2023-05-19T13:50:04.808Z,18.40
2023-05-19T13:52:31.866Z,18.40
2023-05-19T13:54:58.843Z,18.50
2023-05-19T13:57:27.159Z,18.50
2023-05-19T14:00:02.797Z,18.50
2023-05-19T14:02:40.098Z,18.40
2023-05-19T14:05:08.193Z,18.40
2023-05-19T14:07:35.823Z,18.50
2023-05-19T14:10:05.523Z,18.70
2023-05-19T14:12:41.408Z,18.80
2023-05-19T14:15:11.612Z,18.90
2023-05-19T14:17:38.781Z,18.90
2023-05-19T14:20:07.508Z,18.90
2023-05-19T14:22:34.578Z,19.00
2023-05-19T14:25:02.276Z,18.90
2023-05-19T14:27:29.274Z,18.80
2023-05-19T14:29:56.372Z,18.80
2023-05-19T14:32:23.880Z,18.80
2023-05-19T14:34:53.617Z,18.70
2023-05-19T14:37:20.898Z,18.60
2023-05-19T14:39:48.077Z,18.70
2023-05-19T14:42:15.174Z,18.70
2023-05-19T14:44:42.164Z,18.60
2023-05-19T14:47:11.409Z,18.70
2023-05-19T14:49:38.634Z,18.80
2023-05-19T14:52:05.933Z,18.80
2023-05-19T14:54:33.061Z,18.80
2023-05-19T14:57:00.250Z,18.90
2023-05-19T14:59:27.474Z,18.90
2023-05-19T15:01:54.572Z,18.90
2023-05-19T15:04:21.718Z,18.90
2023-05-19T15:06:58.240Z,19.00
2023-05-19T15:09:32.660Z,19.00
2023-05-19T15:12:01.378Z,19.00
2023-05-19T15:14:30.495Z,19.00
2023-05-19T15:16:58.506Z,19.10
2023-05-19T15:19:26.205Z,19.00
2023-05-19T15:21:53.378Z,19.10
2023-05-19T15:24:20.456Z,19.20
2023-05-19T15:26:47.660Z,19.30
2023-05-19T15:29:14.678Z,19.30
2023-05-19T15:31:44.563Z,19.20
2023-05-19T15:34:11.612Z,19.30
2023-05-19T15:36:38.662Z,19.30
2023-05-19T15:39:06.602Z,19.30
2023-05-19T15:41:33.689Z,19.20
2023-05-19T15:44:01.011Z,18.90
2023-05-19T15:46:28.747Z,18.80
2023-05-19T15:48:56.222Z,18.70
2023-05-19T15:51:23.334Z,18.60
2023-05-19T15:53:50.379Z,18.40
2023-05-19T15:56:17.565Z,18.30
2023-05-19T15:58:44.680Z,18.30
2023-05-19T16:01:11.819Z,18.30
2023-05-19T16:03:38.899Z,18.30
2023-05-19T16:06:06.008Z,18.20
2023-05-19T16:08:33.001Z,18.00
2023-05-19T16:11:00.334Z,18.00
2023-05-19T16:13:27.342Z,18.10
2023-05-19T16:15:54.409Z,18.10
2023-05-19T16:18:21.664Z,18.10
2023-05-19T16:20:48.643Z,18.10
2023-05-19T16:23:15.784Z,18.10
2023-05-19T16:25:43.001Z,18.10
2023-05-19T16:28:10.046Z,18.10
2023-05-19T16:30:38.179Z,18.00
2023-05-19T16:33:05.200Z,18.00
2023-05-19T16:35:32.450Z,18.00
2023-05-19T16:37:59.563Z,18.00
2023-05-19T16:40:29.461Z,17.90
2023-05-19T16:42:57.849Z,17.80
2023-05-19T16:45:26.511Z,17.80
2023-05-19T16:47:53.602Z,17.80
2023-05-19T16:50:20.929Z,17.90
2023-05-19T16:52:47.982Z,17.80
2023-05-19T16:55:19.782Z,17.80
2023-05-19T16:57:47.478Z,17.70
2023-05-19T17:00:15.276Z,17.80
2023-05-19T17:02:42.385Z,17.80
2023-05-19T17:05:09.824Z,17.70
2023-05-19T17:07:36.845Z,17.70
2023-05-19T17:10:04.406Z,17.70
2023-05-19T17:12:31.544Z,17.60
2023-05-19T17:14:58.555Z,17.60
2023-05-19T17:17:25.917Z,17.60
2023-05-19T17:19:53.197Z,17.60
2023-05-19T17:22:20.286Z,17.60
2023-05-19T17:24:47.458Z,17.50
2023-05-19T17:27:15.185Z,17.50
2023-05-19T17:29:42.356Z,17.50
2023-05-19T17:32:09.441Z,17.40
2023-05-19T17:34:36.698Z,17.40
2023-05-19T17:37:03.857Z,17.40
2023-05-19T17:39:30.994Z,17.40
2023-05-19T17:41:57.964Z,17.40
2023-05-19T17:44:25.285Z,17.40
2023-05-19T17:46:52.810Z,17.40
2023-05-19T17:49:20.115Z,17.30
2023-05-19T17:51:47.301Z,17.30
2023-05-19T17:54:14.734Z,17.20
2023-05-19T17:56:44.427Z,17.30
2023-05-19T17:59:11.661Z,17.20
2023-05-19T18:01:39.119Z,17.00
2023-05-19T18:04:07.048Z,17.00
2023-05-19T18:06:34.172Z,16.90
2023-05-19T18:09:01.406Z,16.90
2023-05-19T18:11:28.590Z,16.80
2023-05-19T18:13:55.655Z,16.80
2023-05-19T18:16:22.715Z,16.80
2023-05-19T18:18:50.627Z,16.80
2023-05-19T18:21:18.147Z,16.80
2023-05-19T18:23:45.901Z,16.70
2023-05-19T18:26:13.275Z,16.80
2023-05-19T18:28:41.307Z,16.60
2023-05-19T18:31:17.425Z,16.50
2023-05-19T18:33:45.374Z,16.50
2023-05-19T18:36:13.568Z,16.50
2023-05-19T18:38:41.222Z,16.50
2023-05-19T18:41:08.248Z,16.30
2023-05-19T18:43:38.263Z,16.30
2023-05-19T18:46:05.223Z,16.20
2023-05-19T18:48:33.341Z,16.10
2023-05-19T18:51:00.659Z,16.00
2023-05-19T18:53:27.791Z,15.90
2023-05-19T18:55:54.807Z,15.90
2023-05-19T18:58:21.943Z,15.90
2023-05-19T19:00:49.110Z,15.80
2023-05-19T19:03:16.280Z,15.80
2023-05-19T19:05:44.175Z,15.70
2023-05-19T19:08:11.253Z,15.60
2023-05-19T19:10:40.712Z,15.50
2023-05-19T19:13:07.758Z,15.40
2023-05-19T19:15:34.823Z,15.40
2023-05-19T19:18:02.359Z,15.30
2023-05-19T19:20:29.492Z,15.20
2023-05-19T19:22:58.748Z,15.20
2023-05-19T19:25:25.763Z,15.20
2023-05-19T19:27:52.879Z,15.20
2023-05-19T19:30:19.892Z,15.10
2023-05-19T19:32:47.138Z,15.10
2023-05-19T19:35:14.458Z,15.00
2023-05-19T19:37:42.039Z,14.90
2023-05-19T19:40:13.728Z,14.90
2023-05-19T19:42:41.120Z,14.80
2023-05-19T19:45:09.199Z,14.70
2023-05-19T19:47:36.388Z,14.70
2023-05-19T19:50:05.809Z,14.70
2023-05-19T19:52:33.075Z,14.60
2023-05-19T19:55:00.263Z,14.50
2023-05-19T19:57:29.221Z,14.60
2023-05-19T19:59:59.142Z,14.50
2023-05-19T20:02:26.574Z,14.50
2023-05-19T20:04:53.915Z,14.40
2023-05-19T20:07:23.707Z,14.40
2023-05-19T20:09:52.780Z,14.30
2023-05-19T20:12:19.877Z,14.30
2023-05-19T20:14:47.706Z,14.30
2023-05-19T20:17:14.838Z,14.30
2023-05-19T20:19:42.215Z,14.20
2023-05-19T20:22:09.569Z,14.20
2023-05-19T20:24:36.887Z,14.10
2023-05-19T20:27:04.171Z,14.10
2023-05-19T20:29:31.566Z,14.10
2023-05-19T20:31:58.588Z,14.20
2023-05-19T20:34:25.983Z,14.20
2023-05-19T20:36:53.117Z,14.10
2023-05-19T20:39:20.163Z,14.00
2023-05-19T20:41:47.352Z,14.00
2023-05-19T20:44:14.661Z,14.00
2023-05-19T20:46:41.685Z,13.90
2023-05-19T20:49:08.698Z,13.90
2023-05-19T20:51:35.938Z,13.90
2023-05-19T20:54:03.047Z,13.90
2023-05-19T20:56:30.310Z,13.90
2023-05-19T20:58:57.257Z,13.90
2023-05-19T21:01:25.506Z,13.80
2023-05-19T21:03:52.685Z,13.80
2023-05-19T21:06:19.643Z,13.60
2023-05-19T21:08:46.606Z,13.40
2023-05-19T21:11:13.636Z,13.20
2023-05-19T21:13:40.702Z,13.10
2023-05-19T21:16:08.218Z,13.10
2023-05-19T21:18:35.229Z,13.10
2023-05-19T21:21:04.184Z,12.90
2023-05-19T21:23:31.378Z,13.00
2023-05-19T21:25:59.697Z,13.00
2023-05-19T21:28:26.743Z,13.00
2023-05-19T21:30:53.754Z,12.90
2023-05-19T21:33:20.893Z,12.90
2023-05-19T21:35:47.916Z,12.80
2023-05-19T21:38:23.365Z,12.60
2023-05-19T21:40:51.458Z,12.60
2023-05-19T21:43:19.618Z,12.60
2023-05-19T21:45:46.653Z,12.70
2023-05-19T21:48:13.819Z,12.60
2023-05-19T21:50:40.951Z,12.60
2023-05-19T21:53:07.977Z,12.70
2023-05-19T21:55:35.018Z,12.70
2023-05-19T21:58:02.780Z,12.70
2023-05-19T22:00:30.040Z,12.70
2023-05-19T22:02:57.169Z,12.70
2023-05-19T22:05:24.191Z,12.70
2023-05-19T22:07:51.219Z,12.60
2023-05-19T22:10:18.298Z,12.50
2023-05-19T22:12:45.432Z,12.50
2023-05-19T22:15:13.522Z,12.50
2023-05-19T22:17:40.664Z,12.50
2023-05-19T22:20:08.270Z,12.50
2023-05-19T22:22:35.419Z,12.40
2023-05-19T22:25:03.430Z,12.40
2023-05-19T22:27:30.761Z,12.40
2023-05-19T22:29:59.819Z,12.40
2023-05-19T22:32:27.012Z,12.40
2023-05-19T22:34:54.247Z,12.40
2023-05-19T22:37:23.069Z,12.40
2023-05-19T22:39:50.067Z,12.40
2023-05-19T22:42:17.007Z,12.30
2023-05-19T22:44:44.004Z,12.30
2023-05-19T22:47:13.608Z,12.30
2023-05-19T22:49:41.540Z,12.20
2023-05-19T22:52:09.491Z,12.30
2023-05-19T22:54:37.015Z,12.20
2023-05-19T22:57:04.814Z,12.20
2023-05-19T22:59:31.831Z,12.20
2023-05-19T23:01:58.802Z,12.20
2023-05-19T23:04:25.896Z,12.20
2023-05-19T23:06:52.902Z,12.10
2023-05-19T23:09:19.955Z,12.10
2023-05-19T23:11:47.174Z,12.00
2023-05-19T23:14:14.164Z,12.00
2023-05-19T23:16:41.142Z,12.00
2023-05-19T23:19:08.264Z,12.00
2023-05-19T23:21:35.281Z,11.90
2023-05-19T23:24:02.418Z,11.90
2023-05-19T23:26:29.410Z,11.90
2023-05-19T23:28:56.526Z,11.80
2023-05-19T23:31:23.635Z,11.80
2023-05-19T23:33:50.783Z,11.90
2023-05-19T23:36:17.876Z,11.90
2023-05-19T23:38:44.888Z,11.80
2023-05-19T23:41:11.811Z,11.80
2023-05-19T23:43:39.183Z,11.80
2023-05-19T23:46:06.339Z,11.80
2023-05-19T23:48:33.742Z,11.70
2023-05-19T23:51:00.857Z,11.70
2023-05-19T23:53:28.145Z,11.70
2023-05-19T23:55:56.466Z,11.70
2023-05-19T23:58:24.227Z,11.60
